Chatham, Massachusetts
Current Conditions -  °F | °C
As of 7:52 PM on Thursday 27 Nov 2014 (Local Time) from KCQX Reporting Station
Overcast Overcast  
Wind Chill: 37°   Ceiling: 6000
Heat Index: 37°   Visibility: 10mi
Dew Point: 34°   Wind: 0mph
Humidity: 89%   Direction: NA
Pressure: 29.98"   Gusts: NA
Location:  41.68°N, 69.96°W
Report Text: KCQX 280052Z AUTO 00000KT 10SM FEW049 OVC060 03/01 A2998 RMK AO2 RAB01E46 SLP153 P0000 T00280011 $
Loading
Personal Weather Stations






























Interactive Weather Map New forecast layout! Learn more

10-Day Weather Forecast

Advertisements
Track Severe Weather on mobile